createdAt,value
2019-04-14T00:00:51.461Z,43.05
2019-04-14T00:03:43.298Z,43.65
2019-04-14T00:06:11.314Z,48.92
2019-04-14T00:08:39.516Z,40.95
2019-04-14T00:11:08.227Z,41.50
2019-04-14T00:13:35.610Z,46.98
2019-04-14T00:16:03.128Z,42.50
2019-04-14T00:18:31.372Z,41.33
2019-04-14T00:20:59.844Z,41.70
2019-04-14T00:23:28.223Z,48.45
2019-04-14T00:26:27.200Z,43.10
2019-04-14T00:28:56.176Z,41.42
2019-04-14T00:31:24.291Z,42.83
2019-04-14T00:33:54.294Z,43.02
2019-04-14T00:36:48.143Z,49.23
2019-04-14T00:39:20.475Z,41.98
2019-04-14T00:42:21.220Z,40.73
2019-04-14T00:45:11.561Z,43.42
2019-04-14T00:47:57.214Z,45.83
2019-04-14T00:50:18.945Z,40.92
2019-04-14T00:52:48.039Z,43.20
2019-04-14T00:55:16.492Z,43.02
2019-04-14T00:57:44.755Z,45.05
2019-04-14T01:00:16.947Z,41.70
2019-04-14T01:02:43.210Z,46.33
2019-04-14T01:05:15.085Z,41.95
2019-04-14T01:07:45.741Z,43.75
2019-04-14T01:10:14.868Z,43.35
2019-04-14T01:12:43.352Z,45.12
2019-04-14T01:15:11.797Z,40.80
2019-04-14T01:17:41.677Z,43.25
2019-04-14T01:20:12.390Z,44.48
2019-04-14T01:22:40.743Z,46.20
2019-04-14T01:25:09.056Z,41.55
2019-04-14T01:27:38.248Z,41.90
2019-04-14T01:30:08.838Z,47.38
2019-04-14T01:32:37.281Z,45.17
2019-04-14T01:35:05.483Z,49.75
2019-04-14T01:37:33.464Z,41.53
2019-04-14T01:40:01.610Z,48.70
2019-04-14T01:42:30.967Z,44.80
2019-04-14T01:44:59.454Z,48.28
2019-04-14T01:47:27.425Z,51.55
2019-04-14T01:49:55.322Z,50.70
2019-04-14T01:52:32.411Z,50.52
2019-04-14T01:55:22.876Z,53.00
2019-04-14T01:58:01.042Z,47.88
2019-04-14T02:00:46.713Z,50.43
2019-04-14T02:03:15.478Z,49.80
2019-04-14T02:05:43.749Z,46.92
2019-04-14T02:08:11.835Z,48.42
2019-04-14T02:10:41.179Z,48.70
2019-04-14T02:13:09.413Z,51.08
2019-04-14T02:15:37.563Z,45.88
2019-04-14T02:18:05.787Z,47.05
2019-04-14T02:20:33.976Z,46.00
2019-04-14T02:23:02.240Z,51.65
2019-04-14T02:25:31.659Z,46.63
2019-04-14T02:28:00.302Z,44.73
2019-04-14T02:30:36.641Z,52.05
2019-04-14T02:33:37.816Z,49.75
2019-04-14T02:41:04.311Z,47.33
2019-04-14T02:43:30.113Z,48.70
2019-04-14T02:48:44.782Z,50.80
2019-04-14T02:51:07.695Z,51.83
2019-04-14T02:53:55.161Z,47.48
2019-04-14T02:56:08.564Z,48.68
2019-04-14T02:58:40.396Z,47.85
2019-04-14T03:01:10.122Z,52.17
2019-04-14T03:03:31.754Z,46.80
2019-04-14T03:06:10.315Z,41.13
2019-04-14T03:08:45.289Z,42.27
2019-04-14T03:11:06.469Z,43.85
2019-04-14T03:13:35.123Z,43.78
2019-04-14T03:16:01.983Z,48.30
2019-04-14T03:24:30.704Z,46.48
2019-04-14T03:27:05.003Z,47.93
2019-04-14T03:29:39.250Z,52.08
2019-04-14T03:34:42.449Z,53.58
2019-04-14T03:37:31.128Z,49.05
2019-04-14T03:39:51.208Z,45.63
2019-04-14T03:42:01.612Z,48.00
2019-04-14T03:44:34.645Z,45.85
2019-04-14T03:49:32.230Z,42.88
2019-04-14T03:52:19.564Z,40.20
2019-04-14T03:54:20.164Z,41.85
2019-04-14T03:56:49.028Z,47.33
2019-04-14T03:59:17.561Z,44.73
2019-04-14T04:01:45.696Z,41.77
2019-04-14T04:04:14.395Z,36.85
2019-04-14T04:06:42.175Z,39.25
2019-04-14T04:09:10.449Z,40.03
2019-04-14T04:11:38.921Z,41.40
2019-04-14T04:14:07.438Z,39.13
2019-04-14T04:16:55.140Z,38.80
2019-04-14T04:19:49.170Z,39.95
2019-04-14T04:22:36.908Z,41.08
2019-04-14T04:25:19.021Z,43.95
2019-04-14T04:28:14.518Z,42.83
2019-04-14T04:31:04.547Z,44.03
2019-04-14T04:33:43.627Z,43.80
2019-04-14T04:36:16.029Z,41.90
2019-04-14T04:39:06.123Z,47.55
2019-04-14T04:41:33.955Z,39.58
2019-04-14T04:44:01.244Z,39.92
2019-04-14T04:46:28.780Z,42.20
2019-04-14T04:49:03.204Z,38.98
2019-04-14T04:51:24.942Z,43.23
2019-04-14T04:53:52.765Z,45.03
2019-04-14T04:56:20.797Z,43.45
2019-04-14T04:58:48.101Z,45.65
2019-04-14T05:01:15.218Z,40.67
2019-04-14T05:03:42.885Z,42.83
2019-04-14T05:06:53.155Z,41.83
2019-04-14T05:09:43.221Z,36.15
2019-04-14T05:12:41.217Z,39.42
2019-04-14T05:15:29.099Z,39.35
2019-04-14T05:18:00.440Z,42.03
2019-04-14T05:20:29.198Z,37.63
2019-04-14T05:22:57.316Z,43.55
2019-04-14T05:25:25.463Z,40.10
2019-04-14T05:27:53.794Z,40.67
2019-04-14T05:30:22.196Z,38.70
2019-04-14T05:32:50.382Z,37.15
2019-04-14T05:35:18.652Z,40.25
2019-04-14T05:37:46.863Z,43.20
2019-04-14T05:40:16.660Z,38.50
2019-04-14T05:42:45.124Z,37.42
2019-04-14T05:45:13.759Z,40.55
2019-04-14T05:47:43.567Z,39.08
2019-04-14T05:50:11.865Z,36.25
2019-04-14T05:52:40.466Z,40.48
2019-04-14T05:55:08.964Z,37.15
2019-04-14T05:57:37.346Z,37.30
2019-04-14T06:00:10.552Z,37.10
2019-04-14T06:02:39.905Z,37.75
2019-04-14T06:05:09.156Z,39.42
2019-04-14T06:07:38.356Z,40.10
2019-04-14T06:10:06.926Z,35.28
2019-04-14T06:12:34.952Z,36.08
2019-04-14T06:15:04.512Z,40.50
2019-04-14T06:17:32.540Z,39.18
2019-04-14T06:20:00.690Z,40.30
2019-04-14T06:22:29.079Z,38.38
2019-04-14T06:24:57.163Z,41.88
2019-04-14T06:27:25.507Z,38.60
2019-04-14T06:29:57.460Z,37.13
2019-04-14T06:32:31.118Z,35.85
2019-04-14T06:35:18.299Z,37.67
2019-04-14T06:37:56.289Z,39.78
2019-04-14T06:40:25.286Z,35.70
2019-04-14T06:42:53.225Z,35.85
2019-04-14T06:45:21.619Z,36.15
2019-04-14T06:47:49.624Z,34.40
2019-04-14T06:50:19.855Z,40.35
2019-04-14T06:52:48.218Z,39.88
2019-04-14T06:55:16.641Z,37.75
2019-04-14T06:57:45.754Z,35.48
2019-04-14T07:00:13.958Z,32.48
2019-04-14T07:02:42.224Z,32.78
2019-04-14T07:05:10.549Z,35.10
2019-04-14T07:07:39.030Z,36.73
2019-04-14T07:10:07.506Z,34.60
2019-04-14T07:12:35.583Z,30.62
2019-04-14T07:15:04.708Z,32.42
2019-04-14T07:17:32.775Z,31.65
2019-04-14T07:20:02.406Z,34.63
2019-04-14T07:22:30.941Z,33.10
2019-04-14T07:25:00.078Z,28.32
2019-04-14T07:27:28.049Z,30.00
2019-04-14T07:30:28.050Z,29.80
2019-04-14T07:33:23.504Z,30.92
2019-04-14T07:35:58.685Z,29.30
2019-04-14T07:38:32.494Z,27.98
2019-04-14T07:41:22.502Z,33.50
2019-04-14T07:44:00.072Z,29.57
2019-04-14T07:46:42.786Z,31.05
2019-04-14T07:49:48.431Z,25.72
2019-04-14T07:52:32.265Z,32.42
2019-04-14T07:55:31.278Z,24.05
2019-04-14T07:58:12.058Z,26.95
2019-04-14T08:00:57.646Z,24.45
2019-04-14T08:03:34.724Z,22.93
2019-04-14T08:06:02.863Z,25.43
2019-04-14T08:08:30.319Z,21.27
2019-04-14T08:10:58.003Z,22.87
2019-04-14T08:13:26.778Z,21.30
2019-04-14T08:15:54.457Z,18.40
2019-04-14T08:18:22.003Z,19.02
2019-04-14T08:20:50.182Z,17.63
2019-04-14T08:23:18.065Z,18.30
2019-04-14T08:25:45.711Z,18.47
2019-04-14T08:28:13.469Z,17.85
2019-04-14T08:30:41.415Z,20.88
2019-04-14T08:33:09.624Z,18.35
2019-04-14T08:35:37.005Z,18.40
2019-04-14T08:38:05.574Z,19.55
2019-04-14T08:40:33.258Z,19.95
2019-04-14T08:43:16.526Z,20.08
2019-04-14T08:45:50.927Z,22.50
2019-04-14T08:48:40.643Z,23.65
2019-04-14T08:51:15.202Z,21.10
2019-04-14T08:53:46.279Z,20.90
2019-04-14T08:56:18.213Z,24.02
2019-04-14T08:59:20.983Z,22.37
2019-04-14T09:01:57.179Z,24.63
2019-04-14T09:04:33.448Z,21.05
2019-04-14T09:07:33.426Z,22.40
2019-04-14T09:10:14.619Z,19.23
2019-04-14T09:12:42.654Z,21.15
2019-04-14T09:15:09.949Z,19.77
2019-04-14T09:17:37.154Z,23.50
2019-04-14T09:20:04.726Z,21.02
2019-04-14T09:22:32.796Z,24.40
2019-04-14T09:25:00.076Z,20.70
2019-04-14T09:27:28.126Z,18.40
2019-04-14T09:29:55.758Z,20.45
2019-04-14T09:32:23.877Z,18.65
2019-04-14T09:34:51.990Z,18.55
2019-04-14T09:37:19.585Z,16.70
2019-04-14T09:39:48.574Z,22.62
2019-04-14T09:42:17.849Z,15.58
2019-04-14T09:44:46.423Z,18.92
2019-04-14T09:47:14.434Z,18.50
2019-04-14T09:49:53.158Z,17.82
2019-04-14T09:52:21.132Z,18.98
2019-04-14T09:54:48.691Z,18.57
2019-04-14T09:57:16.859Z,22.80
2019-04-14T09:59:49.598Z,18.15
2019-04-14T10:02:17.131Z,20.75
2019-04-14T10:04:45.026Z,17.20
2019-04-14T10:07:13.244Z,18.77
2019-04-14T10:09:43.729Z,18.75
2019-04-14T10:12:11.559Z,18.73
2019-04-14T10:14:38.511Z,18.50
2019-04-14T10:17:05.477Z,15.85
2019-04-14T10:19:32.574Z,18.87
2019-04-14T10:21:59.720Z,18.12
2019-04-14T10:24:31.828Z,15.93
2019-04-14T10:26:58.902Z,16.25
2019-04-14T10:29:25.991Z,16.50
2019-04-14T10:31:53.472Z,15.15
2019-04-14T10:34:20.491Z,15.50
2019-04-14T10:36:54.500Z,23.62
2019-04-14T10:39:22.334Z,17.07
2019-04-14T10:41:49.788Z,17.75
2019-04-14T10:44:18.007Z,17.00
2019-04-14T10:46:45.940Z,17.67
2019-04-14T10:49:13.542Z,21.48
2019-04-14T10:51:42.663Z,18.20
2019-04-14T10:54:11.840Z,17.40
2019-04-14T10:56:40.747Z,22.98
2019-04-14T10:59:09.991Z,18.52
2019-04-14T11:01:37.124Z,16.57
2019-04-14T11:04:07.915Z,16.45
2019-04-14T11:06:39.009Z,15.63
2019-04-14T11:09:14.052Z,15.32
2019-04-14T11:11:43.182Z,16.23
2019-04-14T11:14:11.970Z,15.95
2019-04-14T11:16:40.475Z,16.07
2019-04-14T11:19:07.763Z,14.78
2019-04-14T11:21:42.608Z,18.55
2019-04-14T11:24:10.384Z,17.35
2019-04-14T11:26:39.048Z,14.45
2019-04-14T11:29:08.383Z,17.10
2019-04-14T11:31:54.291Z,16.65
2019-04-14T11:34:25.660Z,14.43
2019-04-14T11:37:14.129Z,17.87
2019-04-14T11:39:42.564Z,16.87
2019-04-14T11:42:10.530Z,15.75
2019-04-14T11:44:42.793Z,17.37
2019-04-14T11:47:11.663Z,18.37
2019-04-14T11:49:40.096Z,17.98
2019-04-14T11:52:08.962Z,16.65
2019-04-14T11:54:38.004Z,16.55
2019-04-14T11:57:06.862Z,20.55
2019-04-14T11:59:51.197Z,16.85
2019-04-14T12:02:23.704Z,16.90
2019-04-14T12:04:56.170Z,16.95
2019-04-14T12:07:48.273Z,18.02
2019-04-14T12:10:18.415Z,17.10
2019-04-14T12:12:50.551Z,17.60
2019-04-14T12:15:18.197Z,15.88
2019-04-14T12:17:46.348Z,16.85
2019-04-14T12:20:13.762Z,17.25
2019-04-14T12:22:41.980Z,16.97
2019-04-14T12:25:10.134Z,18.85
2019-04-14T12:27:38.066Z,19.00
2019-04-14T12:30:13.766Z,17.82
2019-04-14T12:32:41.716Z,19.15
2019-04-14T12:35:14.646Z,17.87
2019-04-14T12:37:41.956Z,19.07
2019-04-14T12:40:10.525Z,18.50
2019-04-14T12:43:06.243Z,19.23
2019-04-14T12:45:55.699Z,18.65
2019-04-14T12:48:46.446Z,17.92
2019-04-14T12:51:20.644Z,16.50
2019-04-14T12:53:48.944Z,18.75
2019-04-14T12:56:25.590Z,17.32
2019-04-14T12:59:16.701Z,17.52
2019-04-14T13:02:23.784Z,16.55
2019-04-14T13:04:51.246Z,19.20
2019-04-14T13:07:20.217Z,19.95
2019-04-14T13:09:50.580Z,17.65
2019-04-14T13:12:17.890Z,16.90
2019-04-14T13:14:45.319Z,19.80
2019-04-14T13:17:13.714Z,17.70
2019-04-14T13:19:41.628Z,17.15
2019-04-14T13:22:09.370Z,19.02
2019-04-14T13:24:36.526Z,16.15
2019-04-14T13:27:04.462Z,19.10
2019-04-14T13:29:32.629Z,18.57
2019-04-14T13:31:59.683Z,21.65
2019-04-14T13:34:29.882Z,18.12
2019-04-14T13:36:59.210Z,19.60
2019-04-14T13:39:26.564Z,18.42
2019-04-14T13:41:53.911Z,20.05
2019-04-14T13:44:27.341Z,23.05
2019-04-14T13:46:57.920Z,18.65
2019-04-14T13:49:25.413Z,19.07
2019-04-14T13:51:52.740Z,19.00
2019-04-14T13:54:20.114Z,18.73
2019-04-14T13:56:47.812Z,21.62
2019-04-14T13:59:15.051Z,18.45
2019-04-14T14:01:47.444Z,20.08
2019-04-14T14:04:14.497Z,16.10
2019-04-14T14:06:41.781Z,21.17
2019-04-14T14:09:11.637Z,16.52
2019-04-14T14:12:01.205Z,18.65
2019-04-14T14:14:51.022Z,19.95
2019-04-14T14:17:30.803Z,18.98
2019-04-14T14:20:06.011Z,17.70
2019-04-14T14:22:38.050Z,19.30
2019-04-14T14:25:19.982Z,18.45
2019-04-14T14:27:47.374Z,19.45
2019-04-14T14:30:17.425Z,19.07
2019-04-14T14:32:44.538Z,18.40
2019-04-14T14:35:12.219Z,17.10
2019-04-14T14:37:39.171Z,18.73
2019-04-14T14:40:06.838Z,17.65
2019-04-14T14:42:33.921Z,18.20
2019-04-14T14:45:32.703Z,18.50
2019-04-14T14:48:11.632Z,16.90
2019-04-14T14:50:51.956Z,17.82
2019-04-14T14:53:22.107Z,16.97
2019-04-14T14:55:48.313Z,16.23
2019-04-14T14:58:15.905Z,17.05
2019-04-14T15:00:43.938Z,17.35
2019-04-14T15:03:11.675Z,16.07
2019-04-14T15:05:38.852Z,17.48
2019-04-14T15:08:06.025Z,18.80
2019-04-14T15:10:37.330Z,17.70
2019-04-14T15:13:04.974Z,16.17
2019-04-14T15:15:32.149Z,16.85
2019-04-14T15:17:59.942Z,17.07
2019-04-14T15:20:27.398Z,17.35
2019-04-14T15:22:55.578Z,16.65
2019-04-14T15:25:22.759Z,16.57
2019-04-14T15:27:50.671Z,18.00
2019-04-14T15:30:20.116Z,16.95
2019-04-14T15:32:48.161Z,17.32
2019-04-14T15:35:15.841Z,17.02
2019-04-14T15:37:44.160Z,17.12
2019-04-14T15:40:14.047Z,18.35
2019-04-14T15:42:41.899Z,16.37
2019-04-14T15:45:10.154Z,15.55
2019-04-14T15:47:37.525Z,15.65
2019-04-14T15:50:05.933Z,18.05
2019-04-14T15:52:36.948Z,16.57
2019-04-14T15:55:04.405Z,15.58
2019-04-14T15:57:50.194Z,17.00
2019-04-14T16:00:33.894Z,17.52
2019-04-14T16:03:36.219Z,14.78
2019-04-14T16:06:10.378Z,15.80
2019-04-14T16:08:46.946Z,15.38
2019-04-14T16:11:31.052Z,19.17
2019-04-14T16:14:22.456Z,16.62
2019-04-14T16:17:31.799Z,15.53
2019-04-14T16:20:04.385Z,15.13
2019-04-14T16:22:31.628Z,20.90
2019-04-14T16:25:03.594Z,16.65
2019-04-14T16:27:42.923Z,14.38
2019-04-14T16:30:22.307Z,14.95
2019-04-14T16:33:16.808Z,15.53
2019-04-14T16:35:45.958Z,14.25
2019-04-14T16:38:14.335Z,14.40
2019-04-14T16:40:43.374Z,17.23
2019-04-14T16:43:11.827Z,13.80
2019-04-14T16:45:44.487Z,17.32
2019-04-14T16:48:13.390Z,14.25
2019-04-14T16:50:41.426Z,15.63
2019-04-14T16:53:31.427Z,13.15
2019-04-14T16:56:05.587Z,14.23
2019-04-14T16:58:42.259Z,13.65
2019-04-14T17:01:12.916Z,13.72
2019-04-14T17:03:40.206Z,14.53
2019-04-14T17:06:07.691Z,12.40
2019-04-14T17:08:35.451Z,15.08
2019-04-14T17:11:03.118Z,14.98
2019-04-14T17:13:33.826Z,13.50
2019-04-14T17:16:20.221Z,13.55
2019-04-14T17:19:07.859Z,15.95
2019-04-14T17:21:58.150Z,14.87
2019-04-14T17:24:43.841Z,14.47
2019-04-14T17:27:30.140Z,13.58
2019-04-14T17:30:09.273Z,13.22
2019-04-14T17:32:42.474Z,13.28
2019-04-14T17:35:27.334Z,13.80
2019-04-14T17:38:07.587Z,16.20
2019-04-14T17:41:04.745Z,15.50
2019-04-14T17:43:40.541Z,13.88
2019-04-14T17:46:21.163Z,12.75
2019-04-14T17:49:17.514Z,15.35
2019-04-14T17:52:06.642Z,13.28
2019-04-14T17:55:13.443Z,18.52
2019-04-14T17:58:13.059Z,15.03
2019-04-14T18:00:59.603Z,16.30
2019-04-14T18:03:33.195Z,13.20
2019-04-14T18:06:06.073Z,15.15
2019-04-14T18:09:04.837Z,13.95
2019-04-14T18:12:01.826Z,13.50
2019-04-14T18:14:41.334Z,14.43
2019-04-14T18:17:25.190Z,13.80
2019-04-14T18:20:00.253Z,15.80
2019-04-14T18:22:28.223Z,17.42
2019-04-14T18:24:57.328Z,15.00
2019-04-14T18:27:25.291Z,12.85
2019-04-14T18:29:58.718Z,13.30
2019-04-14T18:32:35.605Z,13.50
2019-04-14T18:35:22.882Z,14.03
2019-04-14T18:38:08.217Z,14.43
2019-04-14T18:40:57.757Z,15.08
2019-04-14T18:43:44.423Z,13.25
2019-04-14T18:46:30.818Z,11.18
2019-04-14T18:49:04.155Z,16.75
2019-04-14T18:51:50.102Z,11.45
2019-04-14T18:54:28.233Z,11.43
2019-04-14T18:57:15.823Z,13.03
2019-04-14T18:59:48.449Z,10.80
2019-04-14T19:02:18.122Z,8.75
2019-04-14T19:04:46.183Z,10.72
2019-04-14T19:07:14.427Z,9.63
2019-04-14T19:09:42.571Z,9.85
2019-04-14T19:12:30.391Z,9.70
2019-04-14T19:15:09.504Z,9.20
2019-04-14T19:17:53.489Z,10.60
2019-04-14T19:20:21.676Z,10.10
2019-04-14T19:22:49.938Z,10.28
2019-04-14T19:25:24.775Z,8.45
2019-04-14T19:27:53.168Z,9.33
2019-04-14T19:30:21.405Z,9.33
2019-04-14T19:32:49.488Z,11.28
2019-04-14T19:35:17.759Z,10.58
2019-04-14T19:37:46.134Z,10.80
2019-04-14T19:40:14.413Z,10.75
2019-04-14T19:42:42.919Z,10.60
2019-04-14T19:45:12.907Z,12.10
2019-04-14T19:47:41.079Z,13.83
2019-04-14T19:50:09.385Z,9.40
2019-04-14T19:52:37.595Z,9.88
2019-04-14T19:55:06.066Z,11.35
2019-04-14T19:57:34.150Z,10.80
2019-04-14T20:00:03.115Z,9.35
2019-04-14T20:02:31.372Z,10.18
2019-04-14T20:04:59.693Z,12.23
2019-04-14T20:07:27.909Z,11.75
2019-04-14T20:09:56.525Z,11.45
2019-04-14T20:12:25.095Z,12.10
2019-04-14T20:14:53.224Z,12.30
2019-04-14T20:17:39.930Z,11.90
2019-04-14T20:20:33.475Z,10.48
2019-04-14T20:23:21.550Z,10.95
2019-04-14T20:26:03.238Z,11.35
2019-04-14T20:28:43.029Z,10.85
2019-04-14T20:31:27.998Z,10.40
2019-04-14T20:33:59.188Z,11.80
2019-04-14T20:36:27.144Z,10.60
2019-04-14T20:38:58.586Z,12.88
2019-04-14T20:41:26.567Z,12.13
2019-04-14T20:43:54.711Z,10.30
2019-04-14T20:46:22.845Z,10.55
2019-04-14T20:48:50.775Z,13.85
2019-04-14T20:51:22.234Z,9.90
2019-04-14T20:53:52.194Z,10.68
2019-04-14T20:56:19.434Z,11.00
2019-04-14T20:58:46.592Z,10.03
2019-04-14T21:01:14.448Z,11.50
2019-04-14T21:04:07.388Z,10.80
2019-04-14T21:06:55.313Z,9.70
2019-04-14T21:09:42.356Z,10.72
2019-04-14T21:12:20.668Z,10.20
2019-04-14T21:15:14.331Z,8.23
2019-04-14T21:18:00.933Z,9.73
2019-04-14T21:21:06.591Z,8.23
2019-04-14T21:23:50.967Z,7.83
2019-04-14T21:26:34.190Z,10.58
2019-04-14T21:29:09.348Z,7.50
2019-04-14T21:31:42.462Z,7.80
2019-04-14T21:34:17.909Z,9.85
2019-04-14T21:37:06.310Z,9.73
2019-04-14T21:39:54.151Z,8.55
2019-04-14T21:42:22.173Z,8.33
2019-04-14T21:44:50.139Z,8.48
2019-04-14T21:47:18.190Z,9.90
2019-04-14T21:49:46.279Z,10.08
2019-04-14T21:52:33.988Z,8.05
2019-04-14T21:55:02.458Z,8.78
2019-04-14T21:57:52.830Z,9.20
2019-04-14T22:00:57.415Z,8.05
2019-04-14T22:03:34.322Z,10.80
2019-04-14T22:06:12.235Z,8.38
2019-04-14T22:08:44.803Z,9.65
2019-04-14T22:11:17.465Z,9.93
2019-04-14T22:13:45.570Z,9.53
2019-04-14T22:16:13.710Z,9.25
2019-04-14T22:18:41.895Z,9.58
2019-04-14T22:21:10.077Z,10.75
2019-04-14T22:23:38.192Z,8.83
2019-04-14T22:26:07.090Z,9.80
2019-04-14T22:28:35.344Z,10.03
2019-04-14T22:31:03.706Z,10.50
2019-04-14T22:33:32.152Z,12.18
2019-04-14T22:36:00.349Z,9.75
2019-04-14T22:38:28.328Z,10.08
2019-04-14T22:40:56.408Z,9.73
2019-04-14T22:43:24.343Z,9.30
2019-04-14T22:45:52.789Z,10.18
2019-04-14T22:48:21.004Z,10.80
2019-04-14T22:50:49.246Z,9.98
2019-04-14T22:53:17.339Z,11.40
2019-04-14T22:55:45.489Z,12.30
2019-04-14T22:58:13.734Z,11.53
2019-04-14T23:00:55.230Z,12.75
2019-04-14T23:03:40.479Z,11.30
2019-04-14T23:06:33.690Z,11.90
2019-04-14T23:09:15.653Z,11.70
2019-04-14T23:11:52.724Z,12.37
2019-04-14T23:14:27.790Z,13.50
2019-04-14T23:17:17.135Z,13.43
2019-04-14T23:19:48.665Z,10.40
2019-04-14T23:22:22.187Z,11.78
2019-04-14T23:24:50.209Z,13.80
2019-04-14T23:27:18.258Z,11.97
2019-04-14T23:29:46.228Z,13.38
2019-04-14T23:32:14.587Z,15.50
2019-04-14T23:34:43.443Z,12.93
2019-04-14T23:37:12.188Z,15.88
2019-04-14T23:39:40.562Z,12.90
2019-04-14T23:42:09.396Z,16.05
2019-04-14T23:44:37.894Z,16.15
2019-04-14T23:47:06.818Z,13.50
2019-04-14T23:49:36.135Z,16.15
2019-04-14T23:52:03.292Z,20.68
2019-04-14T23:54:34.682Z,14.65
2019-04-14T23:57:06.023Z,15.18
2019-04-14T23:59:33.389Z,14.98
